Sint-Genesius-Rode, Belgium
Current Conditions -  °F | °C
As of 6:50 AM on Saturday 01 Nov 2014 (Local Time) from EBBR Reporting Station
Clear Clear  
Wind Chill: 55°   Ceiling: Unl
Heat Index: 55°   Visibility: 6mi
Dew Point: 48°   Wind: 13mph
Humidity: 77%   Direction: 190°S
Pressure: 30.06"   Gusts: NA
Location:  50.75°N, 4.36°E
Report Text: EBBR 010550Z 19011KT CAVOK 13/09 Q1018 NOSIG
Loading
Personal Weather Stations






























Interactive Weather Map
Tropical Storm Tracking
New forecast layout! Learn more

10-Day Weather Forecast

Advertisements
Track Severe Weather on mobile